createdAt,value
2022-10-11T00:00:33.880Z,13.51
2022-10-11T00:03:02.675Z,13.45
2022-10-11T00:05:31.084Z,13.43
2022-10-11T00:07:59.205Z,13.41
2022-10-11T00:10:27.514Z,13.36
2022-10-11T00:12:55.284Z,13.34
2022-10-11T00:15:23.818Z,13.33
2022-10-11T00:17:52.903Z,13.31
2022-10-11T00:20:20.827Z,13.28
2022-10-11T00:22:49.691Z,13.25
2022-10-11T00:25:18.244Z,13.24
2022-10-11T00:27:46.438Z,13.20
2022-10-11T00:30:14.694Z,13.17
2022-10-11T00:32:42.635Z,13.16
2022-10-11T00:35:12.270Z,13.12
2022-10-11T00:37:40.443Z,13.08
2022-10-11T00:40:12.401Z,13.08
2022-10-11T00:42:40.093Z,13.02
2022-10-11T00:46:04.877Z,13.01
2022-10-11T00:48:40.965Z,13.01
2022-10-11T00:51:18.252Z,12.97
2022-10-11T00:53:48.613Z,12.94
2022-10-11T00:56:22.375Z,12.93
2022-10-11T00:58:50.484Z,12.88
2022-10-11T01:01:18.878Z,12.87
2022-10-11T01:03:48.874Z,12.87
2022-10-11T01:06:18.035Z,12.84
2022-10-11T01:08:46.406Z,12.81
2022-10-11T01:11:18.528Z,12.82
2022-10-11T01:13:56.630Z,12.80
2022-10-11T01:16:30.663Z,12.78
2022-10-11T01:19:12.612Z,12.76
2022-10-11T01:21:49.506Z,12.74
2022-10-11T01:24:34.515Z,12.72
2022-10-11T01:27:43.681Z,12.71
2022-10-11T01:30:27.521Z,12.69
2022-10-11T01:33:07.446Z,12.67
2022-10-11T01:35:41.269Z,12.65
2022-10-11T01:38:15.374Z,12.60
2022-10-11T01:40:50.655Z,12.59
2022-10-11T01:43:21.423Z,12.55
2022-10-11T01:45:53.035Z,12.55
2022-10-11T01:48:21.677Z,12.50
2022-10-11T01:50:51.407Z,12.48
2022-10-11T01:54:09.811Z,12.48
2022-10-11T01:56:54.934Z,12.46
2022-10-11T01:59:39.345Z,12.44
2022-10-11T02:02:17.269Z,12.42
2022-10-11T02:04:50.607Z,12.38
2022-10-11T02:07:24.099Z,12.37
2022-10-11T02:09:58.637Z,12.34
2022-10-11T02:12:33.392Z,12.32
2022-10-11T02:15:04.580Z,12.30
2022-10-11T02:17:41.147Z,12.29
2022-10-11T02:20:14.959Z,12.26
2022-10-11T02:22:47.536Z,12.22
2022-10-11T02:25:22.718Z,12.21
2022-10-11T02:27:53.539Z,12.18
2022-10-11T02:30:21.265Z,12.14
2022-10-11T02:32:52.978Z,12.12
2022-10-11T02:35:25.827Z,12.11
2022-10-11T02:38:00.513Z,12.09
2022-10-11T02:40:33.306Z,12.08
2022-10-11T02:43:05.887Z,12.06
2022-10-11T02:45:39.554Z,12.04
2022-10-11T02:48:12.183Z,12.03
2022-10-11T02:50:41.728Z,11.99
2022-10-11T02:53:09.976Z,11.86
2022-10-11T02:55:38.119Z,11.97
2022-10-11T02:58:06.318Z,11.95
2022-10-11T03:00:34.039Z,11.92
2022-10-11T03:03:03.426Z,11.93
2022-10-11T03:05:37.697Z,11.90
2022-10-11T03:08:05.891Z,11.88
2022-10-11T03:10:34.360Z,11.87
2022-10-11T03:13:02.840Z,11.82
2022-10-11T03:15:31.102Z,11.81
2022-10-11T03:17:59.435Z,11.79
2022-10-11T03:20:27.518Z,11.77
2022-10-11T03:22:57.131Z,11.75
2022-10-11T03:25:25.407Z,11.72
2022-10-11T03:27:53.512Z,11.70
2022-10-11T03:30:21.751Z,11.70
2022-10-11T03:32:49.878Z,11.68
2022-10-11T03:35:17.905Z,11.66
2022-10-11T03:37:46.578Z,11.65
2022-10-11T03:40:15.974Z,11.65
2022-10-11T03:42:43.674Z,11.62
2022-10-11T03:45:12.361Z,11.61
2022-10-11T03:47:41.503Z,11.59
2022-10-11T03:50:10.763Z,11.57
2022-10-11T03:52:39.056Z,11.55
2022-10-11T03:55:07.875Z,11.54
2022-10-11T03:57:37.010Z,11.53
2022-10-11T04:00:06.491Z,11.51
2022-10-11T04:02:38.968Z,11.50
2022-10-11T04:05:08.138Z,11.49
2022-10-11T04:07:36.475Z,11.47
2022-10-11T04:10:04.480Z,11.47
2022-10-11T04:12:32.693Z,11.45
2022-10-11T04:15:02.233Z,11.45
2022-10-11T04:17:29.873Z,11.43
2022-10-11T04:19:57.962Z,11.40
2022-10-11T04:22:26.570Z,11.39
2022-10-11T04:24:54.320Z,11.38
2022-10-11T04:27:22.693Z,11.38
2022-10-11T04:29:51.035Z,11.35
2022-10-11T04:32:20.100Z,11.35
2022-10-11T04:34:48.173Z,11.31
2022-10-11T04:37:15.921Z,11.31
2022-10-11T04:39:44.250Z,11.30
2022-10-11T04:42:11.962Z,11.28
2022-10-11T04:44:39.747Z,11.26
2022-10-11T04:47:08.847Z,11.24
2022-10-11T04:49:38.466Z,11.24
2022-10-11T04:52:06.325Z,11.22
2022-10-11T04:54:34.026Z,11.21
2022-10-11T04:57:02.090Z,11.21
2022-10-11T04:59:29.786Z,11.18
2022-10-11T05:01:57.922Z,11.17
2022-10-11T05:04:25.676Z,11.15
2022-10-11T05:06:55.233Z,11.14
2022-10-11T05:09:23.121Z,11.12
2022-10-11T05:11:51.273Z,11.09
2022-10-11T05:14:18.937Z,11.08
2022-10-11T05:16:47.114Z,11.07
2022-10-11T05:19:14.873Z,11.04
2022-10-11T05:21:42.580Z,11.03
2022-10-11T05:24:12.144Z,11.01
2022-10-11T05:26:40.246Z,10.99
2022-10-11T05:29:07.948Z,10.97
2022-10-11T05:31:36.063Z,10.94
2022-10-11T05:34:03.737Z,10.93
2022-10-11T05:36:31.527Z,10.92
2022-10-11T05:38:59.610Z,10.89
2022-10-11T05:41:29.188Z,10.90
2022-10-11T05:43:57.518Z,10.88
2022-10-11T05:46:25.214Z,10.87
2022-10-11T05:48:53.309Z,10.87
2022-10-11T05:51:20.976Z,10.87
2022-10-11T05:53:49.621Z,10.85
2022-10-11T05:56:21.822Z,10.88
2022-10-11T05:58:52.172Z,10.87
2022-10-11T06:01:22.659Z,10.86
2022-10-11T06:03:50.896Z,10.85
2022-10-11T06:06:19.230Z,10.84
2022-10-11T06:08:50.266Z,10.83
2022-10-11T06:11:21.265Z,10.82
2022-10-11T06:13:52.859Z,10.83
2022-10-11T06:16:21.676Z,10.81
2022-10-11T06:18:51.074Z,10.81
2022-10-11T06:21:19.265Z,10.79
2022-10-11T06:23:50.465Z,10.79
2022-10-11T06:26:18.931Z,10.76
2022-10-11T06:28:49.137Z,10.74
2022-10-11T06:31:21.747Z,10.76
2022-10-11T06:33:53.456Z,10.73
2022-10-11T06:36:29.187Z,10.76
2022-10-11T06:46:51.819Z,10.79
2022-10-11T06:49:23.359Z,10.77
2022-10-11T06:51:51.478Z,10.78
2022-10-11T06:54:19.653Z,10.80
2022-10-11T06:56:50.880Z,10.82
2022-10-11T06:59:21.058Z,10.84
2022-10-11T07:01:48.861Z,10.88
2022-10-11T07:04:20.485Z,10.92
2022-10-11T07:06:48.881Z,10.95
2022-10-11T07:09:18.288Z,11.00
2022-10-11T07:11:48.062Z,11.08
2022-10-11T07:14:16.415Z,11.16
2022-10-11T07:16:44.812Z,11.22
2022-10-11T07:19:14.413Z,11.33
2022-10-11T07:21:43.496Z,11.44
2022-10-11T07:24:12.674Z,11.53
2022-10-11T07:26:41.570Z,11.64
2022-10-11T07:29:11.809Z,11.74
2022-10-11T07:31:41.971Z,11.86
2022-10-11T07:34:12.413Z,12.00
2022-10-11T07:36:40.956Z,12.10
2022-10-11T07:39:11.121Z,12.23
2022-10-11T07:41:45.480Z,12.35
2022-10-11T07:44:15.604Z,12.48
2022-10-11T07:46:44.056Z,12.62
2022-10-11T07:49:12.314Z,12.75
2022-10-11T07:51:41.304Z,12.85
2022-10-11T07:54:11.010Z,12.99
2022-10-11T07:56:40.465Z,13.09
2022-10-11T07:59:09.013Z,13.20
2022-10-11T08:01:37.164Z,13.33
2022-10-11T08:04:05.927Z,13.45
2022-10-11T08:06:34.067Z,13.57
2022-10-11T08:09:03.021Z,13.68
2022-10-11T08:11:34.538Z,13.80
2022-10-11T08:14:05.061Z,13.91
2022-10-11T08:16:34.429Z,14.04
2022-10-11T08:19:03.544Z,14.15
2022-10-11T08:21:32.327Z,14.25
2022-10-11T08:24:01.475Z,14.37
2022-10-11T08:26:29.767Z,14.47
2022-10-11T08:29:02.370Z,14.63
2022-10-11T08:31:31.980Z,14.78
2022-10-11T08:34:00.094Z,14.91
2022-10-11T08:36:28.868Z,15.05
2022-10-11T08:38:56.934Z,15.20
2022-10-11T08:41:49.791Z,15.36
2022-10-11T08:45:05.906Z,15.51
2022-10-11T08:47:32.108Z,15.66
2022-10-11T08:50:02.094Z,15.77
2022-10-11T08:52:47.317Z,15.92
2022-10-11T08:55:22.777Z,16.03
2022-10-11T08:57:55.843Z,16.13
2022-10-11T09:00:29.218Z,16.24
2022-10-11T09:03:09.217Z,16.33
2022-10-11T09:05:54.781Z,16.44
2022-10-11T09:08:33.577Z,16.51
2022-10-11T09:11:11.033Z,16.60
2022-10-11T09:14:15.270Z,16.67
2022-10-11T09:16:59.813Z,16.73
2022-10-11T09:19:49.750Z,16.81
2022-10-11T09:22:30.838Z,16.87
2022-10-11T09:25:14.731Z,16.95
2022-10-11T09:28:02.295Z,17.01
2022-10-11T09:30:33.755Z,17.07
2022-10-11T09:33:15.024Z,17.17
2022-10-11T09:35:47.163Z,17.22
2022-10-11T09:38:25.416Z,17.30
2022-10-11T09:41:04.945Z,17.34
2022-10-11T09:43:33.372Z,17.42
2022-10-11T09:46:01.927Z,17.48
2022-10-11T09:48:40.014Z,17.54
2022-10-11T09:51:16.804Z,17.61
2022-10-11T09:53:55.780Z,17.65
2022-10-11T09:56:33.181Z,17.69
2022-10-11T09:59:24.957Z,17.74
2022-10-11T10:02:28.636Z,17.82
2022-10-11T10:05:08.423Z,17.88
2022-10-11T10:07:43.608Z,17.92
2022-10-11T10:10:33.911Z,17.95
2022-10-11T10:13:09.763Z,17.98
2022-10-11T10:15:48.889Z,18.01
2022-10-11T10:18:30.043Z,18.07
2022-10-11T10:21:01.885Z,18.11
2022-10-11T10:23:35.860Z,18.15
2022-10-11T11:00:15.770Z,18.55
2022-10-11T11:02:53.030Z,18.57
2022-10-11T11:05:42.362Z,18.62
2022-10-11T11:08:21.796Z,18.67
2022-10-11T11:11:02.253Z,18.62
2022-10-11T11:13:46.303Z,18.60
2022-10-11T11:16:28.638Z,18.64
2022-10-11T11:19:04.701Z,18.68
2022-10-11T11:21:41.906Z,18.68
2022-10-11T11:24:20.046Z,18.64
2022-10-11T11:26:54.039Z,18.63
2022-10-11T11:29:35.966Z,18.69
2022-10-11T11:32:15.074Z,18.71
2022-10-11T11:34:47.794Z,18.70
2022-10-11T11:37:25.228Z,18.71
2022-10-11T11:39:58.807Z,18.77
2022-10-11T11:42:35.444Z,18.81
2022-10-11T11:45:07.728Z,18.83
2022-10-11T11:47:48.289Z,18.81
2022-10-11T11:50:23.111Z,18.83
2022-10-11T11:52:55.609Z,18.68
2022-10-11T11:55:31.235Z,18.75
2022-10-11T11:58:09.045Z,18.77
2022-10-11T12:00:53.969Z,18.81
2022-10-11T12:03:28.231Z,18.84
2022-10-11T12:06:20.218Z,18.88
2022-10-11T12:08:50.913Z,18.92
2022-10-11T12:11:22.632Z,18.96
2022-10-11T12:13:53.068Z,18.99
2022-10-11T12:16:24.581Z,19.03
2022-10-11T12:19:02.221Z,19.07
2022-10-11T12:21:34.120Z,19.01
2022-10-11T12:24:10.554Z,19.04
2022-10-11T12:26:41.958Z,19.05
2022-10-11T12:29:42.656Z,19.08
2022-10-11T12:32:52.694Z,19.11
2022-10-11T12:35:57.419Z,19.13
2022-10-11T12:38:29.659Z,19.14
2022-10-11T12:41:01.205Z,19.12
2022-10-11T12:44:14.650Z,19.14
2022-10-11T12:47:07.499Z,19.15
2022-10-11T12:49:56.812Z,19.17
2022-10-11T12:52:32.543Z,19.18
2022-10-11T12:55:14.746Z,19.19
2022-10-11T12:58:24.346Z,19.22
2022-10-11T13:01:19.996Z,19.23
2022-10-11T13:04:02.302Z,19.23
2022-10-11T13:15:04.906Z,19.25
2022-10-11T13:17:38.595Z,19.24
2022-10-11T13:20:17.483Z,19.24
2022-10-11T13:22:54.244Z,19.24
2022-10-11T13:25:26.255Z,19.22
2022-10-11T13:27:59.412Z,19.24
2022-10-11T13:30:31.102Z,19.24
2022-10-11T13:33:05.085Z,19.25
2022-10-11T13:35:39.993Z,19.24
2022-10-11T13:38:13.267Z,19.23
2022-10-11T13:40:50.882Z,19.17
2022-10-11T13:43:27.669Z,19.19
2022-10-11T13:46:00.025Z,19.15
2022-10-11T13:48:34.828Z,19.02
2022-10-11T13:51:19.463Z,19.06
2022-10-11T13:54:13.829Z,19.08
2022-10-11T13:56:51.797Z,19.09
2022-10-11T14:44:46.331Z,19.04
2022-10-11T14:47:17.435Z,19.03
2022-10-11T14:49:52.104Z,19.01
2022-10-11T14:52:20.450Z,19.00
2022-10-11T14:54:51.697Z,19.00
2022-10-11T14:57:19.825Z,18.98
2022-10-11T14:59:49.091Z,19.00
2022-10-11T15:02:21.483Z,18.98
2022-10-11T15:04:52.964Z,18.97
2022-10-11T15:07:27.142Z,18.97
2022-10-11T15:10:01.138Z,18.98
2022-10-11T15:12:36.849Z,18.96
2022-10-11T15:15:16.766Z,18.96
2022-10-11T15:17:54.202Z,18.94
2022-10-11T15:20:27.247Z,18.91
2022-10-11T15:22:56.364Z,18.88
2022-10-11T15:33:32.282Z,18.77
2022-10-11T15:36:02.903Z,18.73
2022-10-11T15:54:34.693Z,18.53
2022-10-11T15:57:04.317Z,18.49
2022-10-11T15:59:32.487Z,18.48
2022-10-11T16:02:00.262Z,18.46
2022-10-11T16:04:28.559Z,18.44
2022-10-11T16:06:57.429Z,18.42
2022-10-11T16:09:25.121Z,18.41
2022-10-11T16:11:53.286Z,18.39
2022-10-11T16:14:22.903Z,18.37
2022-10-11T16:16:52.495Z,18.35
2022-10-11T16:19:22.860Z,18.33
2022-10-11T16:21:54.778Z,18.31
2022-10-11T16:24:27.320Z,18.28
2022-10-11T16:27:00.039Z,18.23
2022-10-11T16:29:35.680Z,18.22
2022-10-11T16:32:03.451Z,18.16
2022-10-11T16:34:33.647Z,18.12
2022-10-11T16:37:05.410Z,18.06
2022-10-11T16:39:37.600Z,17.91
2022-10-11T16:42:09.500Z,17.98
2022-10-11T16:44:42.263Z,17.94
2022-10-11T16:47:10.627Z,17.89
2022-10-11T16:49:39.031Z,17.83
2022-10-11T16:52:11.296Z,17.77
2022-10-11T16:54:41.044Z,17.72
2022-10-11T16:57:11.151Z,17.67
2022-10-11T16:59:44.880Z,17.62
2022-10-11T17:02:17.473Z,17.57
2022-10-11T17:04:46.066Z,17.50
2022-10-11T17:07:14.867Z,17.45
2022-10-11T17:09:44.540Z,17.40
2022-10-11T17:12:14.182Z,17.33
2022-10-11T17:14:44.673Z,17.28
2022-10-11T17:17:13.000Z,17.23
2022-10-11T17:19:45.412Z,17.17
2022-10-11T17:22:15.754Z,17.11
2022-10-11T17:24:43.664Z,17.06
2022-10-11T17:27:11.990Z,16.99
2022-10-11T17:29:40.091Z,16.93
2022-10-11T17:32:09.983Z,16.86
2022-10-11T17:34:38.262Z,16.82
2022-10-11T17:37:11.655Z,16.76
2022-10-11T17:39:40.870Z,16.71
2022-10-11T17:42:10.444Z,16.66
2022-10-11T17:44:40.493Z,16.59
2022-10-11T17:47:15.199Z,16.57
2022-10-11T17:49:43.140Z,16.49
2022-10-11T17:52:12.238Z,16.47
2022-10-11T17:54:41.142Z,16.39
2022-10-11T17:57:10.768Z,16.35
2022-10-11T17:59:39.034Z,16.29
2022-10-11T18:02:08.909Z,16.25
2022-10-11T18:04:39.118Z,16.21
2022-10-11T18:07:07.591Z,16.15
2022-10-11T18:09:37.701Z,16.10
2022-10-11T18:12:07.410Z,16.06
2022-10-11T18:14:35.718Z,16.01
2022-10-11T18:17:03.589Z,15.98
2022-10-11T18:19:31.723Z,15.91
2022-10-11T18:22:06.774Z,15.87
2022-10-11T18:24:35.643Z,15.81
2022-10-11T18:27:03.529Z,15.77
2022-10-11T18:29:31.829Z,15.71
2022-10-11T18:31:59.524Z,15.68
2022-10-11T18:34:30.824Z,15.63
2022-10-11T18:37:00.927Z,15.59
2022-10-11T18:39:31.094Z,15.54
2022-10-11T18:41:59.599Z,15.50
2022-10-11T18:44:27.875Z,15.45
2022-10-11T18:46:55.527Z,15.39
2022-10-11T18:49:23.638Z,15.34
2022-10-11T18:51:51.461Z,15.30
2022-10-11T18:54:21.506Z,15.26
2022-10-11T18:56:50.162Z,15.21
2022-10-11T18:59:17.908Z,15.16
2022-10-11T19:01:46.630Z,15.11
2022-10-11T19:04:16.716Z,15.08
2022-10-11T19:06:48.315Z,15.06
2022-10-11T19:09:22.344Z,15.01
2022-10-11T19:11:53.370Z,14.99
2022-10-11T19:14:26.634Z,14.95
2022-10-11T19:16:55.930Z,14.92
2022-10-11T19:19:25.193Z,14.89
2022-10-11T19:21:56.576Z,14.85
2022-10-11T19:24:27.375Z,14.81
2022-10-11T19:27:02.622Z,14.79
2022-10-11T19:29:32.696Z,14.74
2022-10-11T19:32:03.497Z,14.71
2022-10-11T19:34:32.640Z,14.66
2022-10-11T19:37:01.677Z,14.62
2022-10-11T19:39:30.000Z,14.59
2022-10-11T19:42:00.966Z,14.58
2022-10-11T19:44:28.917Z,14.54
2022-10-11T19:47:04.953Z,14.48
2022-10-11T19:49:33.122Z,14.46
2022-10-11T19:52:01.811Z,14.43
2022-10-11T19:54:31.936Z,14.39
2022-10-11T19:57:02.236Z,14.36
2022-10-11T19:59:29.945Z,14.33
2022-10-11T20:01:58.187Z,14.29
2022-10-11T20:07:13.948Z,14.23
2022-10-11T20:09:41.747Z,14.20
2022-10-11T20:12:11.520Z,14.18
2022-10-11T20:14:39.211Z,14.13
2022-10-11T20:17:07.426Z,14.11
2022-10-11T20:19:35.167Z,14.07
2022-10-11T20:22:03.069Z,14.04
2022-10-11T20:24:33.901Z,13.99
2022-10-11T20:27:02.728Z,13.96
2022-10-11T20:29:32.591Z,13.94
2022-10-11T20:32:00.279Z,13.89
2022-10-11T20:34:29.222Z,13.85
2022-10-11T20:36:56.961Z,13.83
2022-10-11T20:39:25.298Z,13.79
2022-10-11T20:41:53.798Z,13.75
2022-10-11T20:44:21.502Z,13.72
2022-10-11T20:46:51.085Z,13.67
2022-10-11T20:49:19.869Z,13.65
2022-10-11T20:51:48.158Z,13.62
2022-10-11T20:54:16.336Z,13.59
2022-10-11T20:56:44.085Z,13.55
2022-10-11T20:59:11.808Z,13.53
2022-10-11T21:01:41.204Z,13.51
2022-10-11T21:04:20.142Z,13.50
2022-10-11T21:06:48.845Z,13.45
2022-10-11T21:09:17.097Z,13.41
2022-10-11T21:11:45.721Z,13.39
2022-10-11T21:14:13.422Z,13.35
2022-10-11T21:16:41.587Z,13.33
2022-10-11T21:19:14.983Z,13.33
2022-10-11T21:21:43.764Z,13.28
2022-10-11T21:24:11.512Z,13.27
2022-10-11T21:26:39.194Z,13.25
2022-10-11T21:29:07.913Z,13.21
2022-10-11T21:31:35.660Z,13.19
2022-10-11T21:34:05.519Z,13.17
2022-10-11T21:36:34.591Z,13.16
2022-10-11T21:39:02.815Z,13.13
2022-10-11T21:41:30.829Z,13.10
2022-10-11T21:43:58.953Z,13.06
2022-10-11T21:46:54.121Z,13.04
2022-10-11T21:49:17.614Z,13.00
2022-10-11T21:51:47.336Z,12.98
2022-10-11T21:54:15.448Z,12.94
2022-10-11T21:56:43.904Z,12.91
2022-10-11T21:59:12.611Z,12.86
2022-10-11T22:01:41.270Z,12.82
2022-10-11T22:04:09.578Z,12.79
2022-10-11T22:06:38.474Z,12.75
2022-10-11T22:09:08.837Z,12.74
2022-10-11T22:11:37.069Z,12.69
2022-10-11T22:14:05.320Z,12.66
2022-10-11T22:16:34.442Z,12.63
2022-10-11T22:19:02.790Z,12.60
2022-10-11T22:21:30.543Z,12.58
2022-10-11T22:23:58.247Z,12.58
2022-10-11T22:26:30.473Z,12.58
2022-10-11T22:28:58.574Z,12.54
2022-10-11T22:31:26.710Z,12.54
2022-10-11T22:33:55.646Z,12.52
2022-10-11T22:36:24.640Z,12.48
2022-10-11T22:38:53.238Z,12.48
2022-10-11T22:41:21.092Z,12.44
2022-10-11T22:43:50.716Z,12.43
2022-10-11T22:46:18.505Z,12.38
2022-10-11T22:48:46.619Z,12.37
2022-10-11T22:51:21.714Z,12.35
2022-10-11T22:53:49.882Z,12.33
2022-10-11T22:56:17.583Z,12.29
2022-10-11T22:58:45.449Z,12.26
2022-10-11T23:01:17.250Z,12.25
2022-10-11T23:03:48.191Z,12.19
2022-10-11T23:06:16.374Z,12.17
2022-10-11T23:08:44.407Z,12.16
2022-10-11T23:11:12.518Z,12.15
2022-10-11T23:13:40.968Z,12.13
2022-10-11T23:16:10.081Z,12.12
2022-10-11T23:18:39.926Z,12.12
2022-10-11T23:21:08.499Z,12.10
2022-10-11T23:23:36.240Z,12.10
2022-10-11T23:26:07.494Z,12.09
2022-10-11T23:28:37.428Z,12.06
2022-10-11T23:31:10.896Z,12.06
2022-10-11T23:33:40.173Z,12.02
2022-10-11T23:36:15.382Z,12.00
2022-10-11T23:38:43.057Z,11.97
2022-10-11T23:41:10.761Z,11.94
2022-10-11T23:43:38.956Z,11.91
2022-10-11T23:46:06.698Z,11.88
2022-10-11T23:48:34.758Z,11.87
2022-10-11T23:51:03.794Z,11.84
2022-10-11T23:53:31.968Z,11.81
2022-10-11T23:55:59.663Z,11.79
2022-10-11T23:58:27.410Z,11.77
